Time;durP1;ratioP1;P1;durP2;ratioP2;P2;SDS_P1;SDS_P2;PMS_P1;PMS_P2;Temp;Humidity;BMP_temperature;BMP_pressure;BME280_temperature;BME280_humidity;BME280_pressure;Samples;Min_cycle;Max_cycle;Signal;HPM_P1;HPM_P2
2022/10/20 00:01:17;;;;;;;4.15;2.67;;;8.60;99.90;;;;;;5028075;28;20369;-75
2022/10/20 00:03:44;;;;;;;3.40;2.60;;;8.60;99.90;;;;;;5010597;28;20530;-76
2022/10/20 00:06:16;;;;;;;4.93;2.72;;;8.60;99.90;;;;;;5028228;28;20087;-77
2022/10/20 00:08:43;;;;;;;7.13;2.75;;;8.50;99.90;;;;;;5028331;28;20507;-76
2022/10/20 00:11:09;;;;;;;9.52;5.18;;;8.50;99.90;;;;;;5027109;28;20037;-76
2022/10/20 00:13:35;;;;;;;6.97;3.63;;;8.50;99.90;;;;;;5010527;28;20053;-78
2022/10/20 00:16:01;;;;;;;4.80;2.83;;;8.50;99.90;;;;;;5028133;28;20040;-76
2022/10/20 00:18:27;;;;;;;4.40;3.63;;;8.50;99.90;;;;;;5028425;28;20050;-76
2022/10/20 00:20:53;;;;;;;4.88;2.85;;;8.50;99.90;;;;;;5028367;28;20076;-76
2022/10/20 00:23:19;;;;;;;4.45;3.17;;;8.50;99.90;;;;;;5010386;28;20045;-76
2022/10/20 00:25:45;;;;;;;3.63;1.95;;;8.50;99.90;;;;;;5009443;28;20086;-77
2022/10/20 00:28:10;;;;;;;2.40;2.20;;;8.40;99.90;;;;;;5027714;28;20442;-76
2022/10/20 00:30:38;;;;;;;4.35;2.80;;;8.40;99.90;;;;;;5027714;28;20049;-75
2022/10/20 00:33:04;;;;;;;6.18;3.72;;;8.40;99.90;;;;;;5027725;28;20369;-76
2022/10/20 00:35:31;;;;;;;5.13;3.15;;;8.40;99.90;;;;;;5027746;28;20545;-80
2022/10/20 00:37:57;;;;;;;4.35;3.28;;;8.30;99.90;;;;;;5010919;28;20488;-77
2022/10/20 00:40:23;;;;;;;4.55;3.45;;;8.30;99.90;;;;;;5026442;28;20044;-76
2022/10/20 00:42:49;;;;;;;5.82;3.50;;;8.30;99.90;;;;;;5027525;28;20033;-76
2022/10/20 00:45:17;;;;;;;4.90;3.13;;;8.30;99.90;;;;;;5027140;28;20407;-76
2022/10/20 00:47:47;;;;;;;17.88;3.72;;;8.30;99.90;;;;;;5009744;28;20058;-76
2022/10/20 00:50:17;;;;;;;4.55;2.10;;;8.30;99.90;;;;;;5027171;28;20084;-76
2022/10/20 00:52:44;;;;;;;6.75;2.95;;;8.30;99.90;;;;;;5009672;28;20053;-76
2022/10/20 00:55:13;;;;;;;3.22;2.90;;;8.20;99.90;;;;;;5008354;28;20056;-77
2022/10/20 00:57:41;;;;;;;6.47;2.83;;;8.30;99.90;;;;;;5009654;28;20101;-76
2022/10/20 01:00:07;;;;;;;4.25;2.72;;;8.20;99.90;;;;;;5009469;28;20052;-76
2022/10/20 01:02:34;;;;;;;3.70;2.63;;;8.20;99.90;;;;;;5027029;28;20041;-76
2022/10/20 01:05:00;;;;;;;6.90;4.03;;;8.20;99.90;;;;;;5090695;22;20056;-80
2022/10/20 01:07:26;;;;;;;6.45;3.30;;;8.10;99.90;;;;;;5028013;28;20045;-76
2022/10/20 01:09:52;;;;;;;5.65;3.83;;;8.10;99.90;;;;;;5008761;28;20392;-79
2022/10/20 01:12:27;;;;;;;7.07;2.72;;;8.10;99.90;;;;;;5027166;28;20457;-76
2022/10/20 01:15:15;;;;;;;3.95;3.65;;;8.10;99.90;;;;;;5027472;28;20100;-76
2022/10/20 01:18:17;;;;;;;11.13;3.08;;;8.10;99.90;;;;;;5027243;28;20172;-75
2022/10/20 01:20:59;;;;;;;6.05;3.83;;;8.00;99.90;;;;;;4996726;28;20148;-76
2022/10/20 01:23:25;;;;;;;10.00;3.42;;;8.00;99.90;;;;;;4993725;28;20409;-75
2022/10/20 01:26:27;;;;;;;4.03;2.80;;;8.00;99.90;;;;;;5039027;28;20040;-76
2022/10/20 01:29:10;;;;;;;7.90;3.80;;;8.00;99.90;;;;;;5047215;28;20045;-75
2022/10/20 01:31:47;;;;;;;4.07;3.30;;;8.00;99.90;;;;;;5012597;28;20390;-76
2022/10/20 01:34:37;;;;;;;4.93;3.75;;;8.00;99.90;;;;;;5046582;28;20033;-75
2022/10/20 01:37:11;;;;;;;4.88;2.65;;;8.00;99.90;;;;;;5046474;28;20048;-76
2022/10/20 01:40:20;;;;;;;7.57;4.13;;;8.00;99.90;;;;;;5028232;28;20052;-75
2022/10/20 01:42:49;;;;;;;4.10;2.80;;;8.00;99.90;;;;;;4958220;28;20109;-78
2022/10/20 01:45:18;;;;;;;7.00;2.78;;;7.90;99.90;;;;;;5046166;28;20625;-77
2022/10/20 01:47:45;;;;;;;4.28;3.42;;;7.90;99.90;;;;;;5046601;28;20052;-76
2022/10/20 01:50:13;;;;;;;5.95;3.33;;;7.90;99.90;;;;;;5046284;28;20049;-76
2022/10/20 01:52:38;;;;;;;8.50;4.18;;;7.90;99.90;;;;;;5046622;28;20175;-78
2022/10/20 01:55:17;;;;;;;4.53;2.10;;;7.80;99.90;;;;;;5027791;28;20124;-75
2022/10/20 01:58:03;;;;;;;12.35;3.45;;;7.80;99.90;;;;;;5046658;28;20167;-75
2022/10/20 02:00:29;;;;;;;4.50;2.92;;;7.80;99.90;;;;;;5046637;28;20041;-76
2022/10/20 02:03:10;;;;;;;5.57;3.22;;;7.80;99.90;;;;;;5046869;28;20485;-75
2022/10/20 02:05:54;;;;;;;4.72;3.05;;;7.80;99.90;;;;;;5027898;28;20052;-77
2022/10/20 02:08:37;;;;;;;5.28;3.08;;;7.80;99.90;;;;;;5028157;28;20056;-77
2022/10/20 02:11:06;;;;;;;13.80;3.25;;;7.80;99.90;;;;;;5026860;28;20049;-76
2022/10/20 02:13:35;;;;;;;5.35;3.10;;;7.80;99.90;;;;;;5046239;28;20049;-75
2022/10/20 02:16:08;;;;;;;3.38;2.95;;;7.70;99.90;;;;;;5045647;28;20069;-76
2022/10/20 02:18:39;;;;;;;4.95;3.45;;;7.70;99.90;;;;;;5046135;28;20041;-77
2022/10/20 02:21:06;;;;;;;4.22;3.25;;;7.70;99.90;;;;;;5045362;28;20044;-76
2022/10/20 02:23:36;;;;;;;4.90;2.97;;;7.70;99.90;;;;;;5028216;28;20221;-76
2022/10/20 02:26:05;;;;;;;3.25;2.95;;;7.70;99.90;;;;;;5030134;28;20049;-76
2022/10/20 02:28:34;;;;;;;3.78;3.13;;;7.60;99.90;;;;;;5026262;28;20428;-76
2022/10/20 02:31:01;;;;;;;4.43;3.42;;;7.70;99.90;;;;;;5025835;28;20045;-80
2022/10/20 02:33:27;;;;;;;5.70;2.83;;;7.60;99.90;;;;;;5026239;28;20112;-76
2022/10/20 02:35:58;;;;;;;4.95;3.53;;;7.60;99.90;;;;;;5007764;28;20057;-78
2022/10/20 02:38:24;;;;;;;2.55;2.35;;;7.60;99.90;;;;;;5025769;28;20265;-76
2022/10/20 02:40:50;;;;;;;8.00;3.47;;;7.60;99.90;;;;;;5024596;28;20068;-76
2022/10/20 02:43:16;;;;;;;3.17;2.70;;;7.60;99.90;;;;;;5025327;28;20395;-78
2022/10/20 02:45:42;;;;;;;4.57;3.15;;;7.60;99.90;;;;;;5025220;28;20127;-76
2022/10/20 02:48:10;;;;;;;5.28;3.05;;;7.60;99.90;;;;;;5007603;28;20099;-76
2022/10/20 02:50:36;;;;;;;5.00;3.30;;;7.60;99.90;;;;;;5025605;28;20037;-77
2022/10/20 02:53:03;;;;;;;4.07;3.67;;;7.50;99.90;;;;;;5025442;28;20449;-76
2022/10/20 02:55:28;;;;;;;5.03;3.13;;;7.50;99.90;;;;;;5024764;28;20491;-77
2022/10/20 02:57:54;;;;;;;4.03;3.67;;;7.50;99.90;;;;;;5007846;28;20045;-75
2022/10/20 03:00:20;;;;;;;5.15;3.95;;;7.50;99.90;;;;;;5025048;28;20053;-76
2022/10/20 03:02:47;;;;;;;5.82;3.55;;;7.50;99.90;;;;;;5025409;28;20462;-76
2022/10/20 03:05:13;;;;;;;5.70;3.78;;;7.50;99.90;;;;;;5024057;28;20405;-75
2022/10/20 03:07:38;;;;;;;11.13;3.20;;;7.40;99.90;;;;;;5025373;28;20049;-76
2022/10/20 03:10:05;;;;;;;5.65;4.43;;;7.40;99.90;;;;;;5024183;28;20045;-76
2022/10/20 03:12:31;;;;;;;8.60;3.30;;;7.40;99.90;;;;;;5025150;28;20050;-77
2022/10/20 03:14:56;;;;;;;3.88;3.28;;;7.40;99.90;;;;;;5008072;28;20095;-76
2022/10/20 03:17:22;;;;;;;7.20;3.65;;;7.40;99.90;;;;;;5024781;28;20524;-75
2022/10/20 03:19:47;;;;;;;5.93;3.88;;;7.40;99.90;;;;;;5007631;28;20454;-76
2022/10/20 03:22:13;;;;;;;8.50;2.92;;;7.40;99.90;;;;;;5007024;28;20037;-77
2022/10/20 03:24:38;;;;;;;4.72;2.92;;;7.40;99.90;;;;;;5027451;28;20068;-76
2022/10/20 03:27:04;;;;;;;2.40;2.20;;;7.40;99.90;;;;;;5044965;28;20087;-76
2022/10/20 03:29:29;;;;;;;6.85;3.70;;;7.40;99.90;;;;;;5044655;28;20087;-78
2022/10/20 03:31:55;;;;;;;4.65;2.38;;;7.40;99.90;;;;;;5045147;28;20140;-76
2022/10/20 03:34:21;;;;;;;4.70;3.38;;;7.40;99.90;;;;;;5045099;28;20052;-76
2022/10/20 03:36:46;;;;;;;5.22;3.75;;;7.40;99.90;;;;;;5045035;28;20490;-76
2022/10/20 03:39:12;;;;;;;6.63;2.88;;;7.40;99.90;;;;;;5043722;28;20048;-76
2022/10/20 03:41:38;;;;;;;5.18;3.13;;;7.40;99.90;;;;;;5044634;28;20029;-76
2022/10/20 03:44:03;;;;;;;5.25;4.15;;;7.40;99.90;;;;;;5044845;28;20045;-77
2022/10/20 03:46:29;;;;;;;4.68;3.35;;;7.40;99.90;;;;;;5045058;28;20041;-76
2022/10/20 03:48:54;;;;;;;5.00;2.85;;;7.40;99.90;;;;;;5045314;28;20071;-76
2022/10/20 03:51:20;;;;;;;2.97;2.67;;;7.40;99.90;;;;;;5026423;28;20052;-77
2022/10/20 03:53:46;;;;;;;7.03;4.72;;;7.40;99.90;;;;;;5044327;28;20127;-76
2022/10/20 03:56:16;;;;;;;6.13;3.17;;;7.30;99.90;;;;;;5044793;28;20041;-75
2022/10/20 03:58:41;;;;;;;4.60;3.72;;;7.30;99.90;;;;;;5044924;28;20049;-76
2022/10/20 04:01:09;;;;;;;5.25;2.97;;;7.30;99.90;;;;;;5044413;28;20238;-75
2022/10/20 04:03:35;;;;;;;5.35;3.80;;;7.30;99.90;;;;;;5044935;28;20044;-76
2022/10/20 04:06:01;;;;;;;4.65;3.75;;;7.40;99.90;;;;;;5043934;28;20567;-76
2022/10/20 04:08:26;;;;;;;5.93;3.40;;;7.30;99.90;;;;;;5045146;28;20444;-76
2022/10/20 04:10:52;;;;;;;8.65;3.67;;;7.30;99.90;;;;;;5044096;28;20069;-76
2022/10/20 04:13:17;;;;;;;3.47;2.95;;;7.30;99.90;;;;;;5044262;28;20885;-76
2022/10/20 04:15:43;;;;;;;7.03;3.78;;;7.30;99.90;;;;;;5044561;28;20056;-75
2022/10/20 04:18:08;;;;;;;6.07;4.25;;;7.40;99.90;;;;;;5029719;28;20403;-77
2022/10/20 04:20:34;;;;;;;6.22;4.43;;;7.30;99.90;;;;;;5048409;28;20048;-76
2022/10/20 04:22:59;;;;;;;3.85;3.50;;;7.30;99.90;;;;;;5029846;28;20124;-78
2022/10/20 04:25:25;;;;;;;3.47;3.08;;;7.30;99.90;;;;;;5038015;28;20412;-78
2022/10/20 04:27:51;;;;;;;5.55;3.55;;;7.30;99.90;;;;;;5010557;28;20092;-76
2022/10/20 04:30:16;;;;;;;14.90;4.68;;;7.30;99.90;;;;;;5010142;28;20045;-75
2022/10/20 04:32:42;;;;;;;7.95;4.70;;;7.30;99.90;;;;;;5028428;28;20673;-76
2022/10/20 04:35:09;;;;;;;4.47;3.75;;;7.30;99.90;;;;;;5027652;28;20480;-76
2022/10/20 04:37:35;;;;;;;5.40;4.00;;;7.30;99.90;;;;;;5027967;28;20041;-76
2022/10/20 04:40:00;;;;;;;5.68;4.75;;;7.30;99.90;;;;;;5026847;28;20121;-79
2022/10/20 04:42:26;;;;;;;7.65;4.53;;;7.30;99.90;;;;;;5028407;28;20499;-75
2022/10/20 04:44:52;;;;;;;5.40;4.18;;;7.30;99.90;;;;;;5027735;28;20076;-76
2022/10/20 04:47:17;;;;;;;4.07;3.30;;;7.30;99.90;;;;;;5009805;28;20057;-76
2022/10/20 04:49:43;;;;;;;8.30;3.92;;;7.30;99.90;;;;;;5027699;28;20403;-76
2022/10/20 04:52:09;;;;;;;7.35;4.28;;;7.30;99.90;;;;;;5027364;28;20411;-78
2022/10/20 04:54:34;;;;;;;7.00;4.70;;;7.30;99.90;;;;;;5026730;28;20095;-75
2022/10/20 04:57:00;;;;;;;7.13;4.68;;;7.30;99.90;;;;;;5027419;28;20048;-77
2022/10/20 04:59:26;;;;;;;4.78;3.63;;;7.30;99.90;;;;;;5027672;28;20037;-76
2022/10/20 05:01:51;;;;;;;7.07;4.32;;;7.20;99.90;;;;;;5027693;28;20048;-76
2022/10/20 05:04:20;;;;;;;8.07;5.57;;;7.20;99.90;;;;;;5027229;28;20045;-76
2022/10/20 05:06:46;;;;;;;6.78;4.15;;;7.20;99.90;;;;;;5027196;28;20447;-76
2022/10/20 05:09:12;;;;;;;6.18;4.15;;;7.20;99.90;;;;;;5008112;28;20147;-78
2022/10/20 05:11:38;;;;;;;6.90;5.00;;;7.20;99.90;;;;;;5027392;28;20049;-76
2022/10/20 05:14:04;;;;;;;6.45;4.47;;;7.20;99.90;;;;;;5009084;28;20049;-76
2022/10/20 05:16:29;;;;;;;4.80;4.35;;;7.20;99.90;;;;;;5027654;28;20499;-80
2022/10/20 05:18:56;;;;;;;6.10;4.35;;;7.20;99.90;;;;;;5027557;28;20579;-75
2022/10/20 05:21:25;;;;;;;6.85;4.43;;;7.20;99.90;;;;;;5026953;28;20437;-76
2022/10/20 05:24:15;;;;;;;8.20;5.18;;;7.20;99.90;;;;;;5008505;28;20045;-76
2022/10/20 05:26:41;;;;;;;5.93;4.00;;;7.20;99.90;;;;;;4979367;28;20058;-76
2022/10/20 05:29:09;;;;;;;6.65;4.82;;;7.10;99.90;;;;;;4989296;28;20073;-76
2022/10/20 05:31:40;;;;;;;6.07;4.70;;;7.10;99.90;;;;;;5007357;28;20088;-76
2022/10/20 05:34:05;;;;;;;6.80;4.50;;;7.10;99.90;;;;;;5006714;28;20068;-76
2022/10/20 05:36:31;;;;;;;7.22;4.95;;;7.10;99.90;;;;;;5007219;28;20038;-75
2022/10/20 05:38:56;;;;;;;6.07;4.75;;;7.10;99.90;;;;;;5006239;28;20041;-75
2022/10/20 05:41:24;;;;;;;7.05;3.78;;;7.10;99.90;;;;;;5006481;28;20152;-75
2022/10/20 05:43:52;;;;;;;8.20;5.00;;;7.10;99.90;;;;;;4989368;28;20570;-75
2022/10/20 05:46:19;;;;;;;6.72;4.32;;;7.10;99.90;;;;;;5006673;28;20045;-75
2022/10/20 05:48:45;;;;;;;9.25;4.60;;;7.10;99.90;;;;;;5006600;28;20046;-76
2022/10/20 05:51:19;;;;;;;10.35;4.95;;;7.10;99.90;;;;;;5006474;28;20038;-76
2022/10/20 05:53:48;;;;;;;7.18;4.78;;;7.10;99.90;;;;;;5005299;28;20416;-77
2022/10/20 05:56:16;;;;;;;7.70;5.25;;;7.10;99.90;;;;;;4972406;28;20481;-76
2022/10/20 05:58:43;;;;;;;5.85;5.00;;;7.10;99.90;;;;;;4988954;28;20125;-75
2022/10/20 06:01:19;;;;;;;16.08;6.10;;;7.10;99.90;;;;;;4988526;28;20042;-76
2022/10/20 06:03:59;;;;;;;10.20;4.82;;;7.10;99.90;;;;;;5006525;28;20496;-76
2022/10/20 06:06:27;;;;;;;7.93;5.20;;;7.10;99.90;;;;;;5006294;28;20411;-76
2022/10/20 06:08:54;;;;;;;13.13;6.80;;;7.10;99.90;;;;;;5005429;28;20060;-76
2022/10/20 06:11:20;;;;;;;6.55;5.03;;;7.20;99.90;;;;;;5006117;28;20061;-76
2022/10/20 06:13:46;;;;;;;7.85;5.10;;;7.10;99.90;;;;;;4988490;28;20121;-75
2022/10/20 06:16:18;;;;;;;9.65;7.30;;;7.10;99.90;;;;;;4988390;28;20173;-76
2022/10/20 06:18:44;;;;;;;7.03;6.32;;;7.10;99.90;;;;;;5006143;28;20072;-76
2022/10/20 06:21:12;;;;;;;7.47;5.07;;;7.10;99.90;;;;;;4988416;28;20496;-75
2022/10/20 06:23:38;;;;;;;7.25;5.28;;;7.10;99.90;;;;;;5005268;28;20045;-76
2022/10/20 06:26:07;;;;;;;8.13;4.75;;;7.10;99.90;;;;;;5034765;28;20103;-77
2022/10/20 06:28:34;;;;;;;9.65;4.90;;;7.20;99.90;;;;;;5045688;28;20120;-77
2022/10/20 06:31:08;;;;;;;8.70;6.20;;;7.20;99.90;;;;;;5045637;28;20102;-77
2022/10/20 06:33:34;;;;;;;10.55;5.43;;;7.20;99.90;;;;;;5045642;28;20041;-75
2022/10/20 06:36:02;;;;;;;13.82;7.18;;;7.20;99.90;;;;;;5045585;28;20406;-80
2022/10/20 06:38:28;;;;;;;8.48;4.75;;;7.20;99.90;;;;;;5044656;28;20541;-76
2022/10/20 06:40:54;;;;;;;7.75;5.03;;;7.20;99.90;;;;;;5045353;28;20041;-77
2022/10/20 06:43:19;;;;;;;9.25;5.68;;;7.20;99.90;;;;;;5045036;28;20108;-78
2022/10/20 06:45:56;;;;;;;12.68;7.78;;;7.20;99.90;;;;;;5045444;28;20044;-75
2022/10/20 06:48:22;;;;;;;9.95;6.65;;;7.20;99.90;;;;;;5027450;28;20104;-75
2022/10/20 06:50:48;;;;;;;6.85;4.90;;;7.20;99.90;;;;;;5045764;28;20120;-75
2022/10/20 06:53:13;;;;;;;6.57;5.90;;;7.20;99.90;;;;;;5044307;28;20041;-76
2022/10/20 06:55:39;;;;;;;7.60;5.40;;;7.20;99.90;;;;;;5045271;28;20037;-76
2022/10/20 06:58:04;;;;;;;7.32;4.97;;;7.30;99.90;;;;;;5045129;28;20087;-75
2022/10/20 07:00:30;;;;;;;10.77;6.65;;;7.30;99.90;;;;;;5045195;28;20116;-78
2022/10/20 07:02:55;;;;;;;8.93;6.28;;;7.30;99.90;;;;;;5046145;28;20040;-76
2022/10/20 07:05:21;;;;;;;7.20;5.70;;;7.30;99.90;;;;;;5044724;28;20525;-76
2022/10/20 07:07:46;;;;;;;9.88;6.97;;;7.30;99.90;;;;;;5045459;28;20379;-76
2022/10/20 07:10:12;;;;;;;10.55;6.40;;;7.40;99.90;;;;;;5043964;28;20052;-78
2022/10/20 07:12:38;;;;;;;10.85;6.40;;;7.40;99.90;;;;;;5045735;28;20084;-76
2022/10/20 07:15:04;;;;;;;12.65;8.20;;;7.40;99.90;;;;;;5027254;28;20052;-75
2022/10/20 07:17:30;;;;;;;9.93;8.52;;;7.40;99.90;;;;;;5044950;28;20052;-76
2022/10/20 07:19:56;;;;;;;10.35;7.32;;;7.40;99.90;;;;;;5045593;28;20402;-76
2022/10/20 07:22:21;;;;;;;12.57;5.88;;;7.40;99.90;;;;;;5044944;28;20064;-78
2022/10/20 07:24:47;;;;;;;11.48;7.90;;;7.40;99.90;;;;;;5040097;28;20037;-76
2022/10/20 07:27:12;;;;;;;13.20;7.18;;;7.40;99.90;;;;;;5024655;28;20114;-75
2022/10/20 07:29:38;;;;;;;9.93;5.28;;;7.50;99.90;;;;;;5025252;28;20041;-78
2022/10/20 07:32:04;;;;;;;9.98;6.13;;;7.50;99.90;;;;;;5025236;28;20499;-75
2022/10/20 07:34:29;;;;;;;11.48;9.02;;;7.50;99.90;;;;;;5025235;28;20399;-78
2022/10/20 07:36:56;;;;;;;10.68;6.28;;;7.50;99.90;;;;;;5025440;28;20088;-77
2022/10/20 07:39:21;;;;;;;11.18;7.82;;;7.50;99.90;;;;;;5006418;28;20049;-75
2022/10/20 07:41:47;;;;;;;12.60;7.57;;;7.60;99.90;;;;;;5024831;28;20041;-77
2022/10/20 07:44:13;;;;;;;12.25;7.22;;;7.60;99.90;;;;;;5024695;28;20396;-76
2022/10/20 07:46:39;;;;;;;9.40;6.13;;;7.60;99.90;;;;;;5024769;28;20623;-75
2022/10/20 07:49:04;;;;;;;10.27;6.28;;;7.60;99.90;;;;;;5024810;28;20055;-76
2022/10/20 07:51:31;;;;;;;10.60;6.35;;;7.70;99.90;;;;;;5027728;28;20056;-76
2022/10/20 07:54:05;;;;;;;10.07;6.57;;;7.70;99.90;;;;;;5010388;28;20045;-76
2022/10/20 07:56:34;;;;;;;9.45;6.80;;;7.70;99.90;;;;;;5028512;28;20460;-76
2022/10/20 07:59:00;;;;;;;10.60;8.07;;;7.70;99.90;;;;;;5028487;28;20037;-76
2022/10/20 08:01:26;;;;;;;8.93;6.30;;;7.80;99.90;;;;;;5028835;28;20048;-76
2022/10/20 08:03:52;;;;;;;10.57;7.45;;;7.80;99.90;;;;;;5028443;28;20042;-76
2022/10/20 08:06:18;;;;;;;8.80;5.68;;;7.80;99.90;;;;;;5028167;28;20061;-75
2022/10/20 08:08:43;;;;;;;14.07;7.45;;;7.90;99.90;;;;;;5027459;28;20059;-75
2022/10/20 08:11:10;;;;;;;8.77;5.45;;;7.90;99.90;;;;;;5010518;28;20042;-75
2022/10/20 08:13:37;;;;;;;10.43;6.97;;;7.90;99.90;;;;;;5028397;28;20042;-76
2022/10/20 08:16:03;;;;;;;10.02;7.78;;;7.90;99.90;;;;;;5027739;28;20041;-77
2022/10/20 08:18:28;;;;;;;10.43;7.68;;;8.00;99.90;;;;;;5028868;28;20091;-75
2022/10/20 08:21:05;;;;;;;11.65;8.05;;;8.00;99.90;;;;;;5028055;28;20712;-75
2022/10/20 08:23:30;;;;;;;9.00;6.75;;;8.00;99.90;;;;;;5009874;28;20530;-76
2022/10/20 08:25:56;;;;;;;13.80;8.98;;;8.10;99.90;;;;;;5041626;28;20045;-78
2022/10/20 08:28:21;;;;;;;8.57;6.30;;;8.10;99.90;;;;;;5047615;28;20033;-75
2022/10/20 08:30:47;;;;;;;10.13;7.20;;;8.10;99.90;;;;;;5047700;28;20036;-75
2022/10/20 08:33:12;;;;;;;10.65;7.38;;;8.20;99.90;;;;;;5047776;28;20151;-75
2022/10/20 08:35:38;;;;;;;10.10;6.60;;;8.20;99.90;;;;;;5047771;28;20114;-76
2022/10/20 08:38:05;;;;;;;12.02;6.50;;;8.30;99.90;;;;;;5046633;28;20037;-75
2022/10/20 08:40:33;;;;;;;11.45;7.80;;;8.30;99.90;;;;;;5047563;28;20049;-76
2022/10/20 08:42:58;;;;;;;8.05;6.95;;;8.30;99.90;;;;;;5029885;28;20045;-77
2022/10/20 08:45:26;;;;;;;9.13;6.43;;;8.40;99.90;;;;;;5047460;28;20403;-76
2022/10/20 08:47:55;;;;;;;17.50;8.15;;;8.40;99.90;;;;;;5047542;28;20037;-76
2022/10/20 08:50:21;;;;;;;8.30;6.85;;;8.50;99.90;;;;;;5046701;28;20098;-76
2022/10/20 08:52:54;;;;;;;8.75;6.65;;;8.50;99.90;;;;;;5028623;28;20376;-76
2022/10/20 08:55:28;;;;;;;10.27;7.25;;;8.60;99.90;;;;;;5046938;28;20052;-76
2022/10/20 08:58:03;;;;;;;9.13;6.18;;;8.60;99.90;;;;;;5047865;28;20049;-76
2022/10/20 09:00:31;;;;;;;7.88;5.68;;;8.70;99.90;;;;;;5047658;28;20045;-78
2022/10/20 09:03:09;;;;;;;8.45;7.45;;;8.70;99.90;;;;;;5046933;28;20045;-77
2022/10/20 09:05:39;;;;;;;7.68;5.72;;;8.70;99.90;;;;;;5028939;28;20068;-76
2022/10/20 09:08:04;;;;;;;11.40;6.63;;;8.80;99.90;;;;;;5045920;28;20128;-76
2022/10/20 09:10:36;;;;;;;13.35;8.13;;;8.80;99.90;;;;;;5029323;28;20128;-77
2022/10/20 09:13:10;;;;;;;7.63;5.87;;;8.80;99.90;;;;;;5046911;28;20076;-76
2022/10/20 09:15:37;;;;;;;9.45;4.85;;;8.80;99.90;;;;;;5047155;28;20287;-75
2022/10/20 09:18:08;;;;;;;9.95;6.75;;;8.80;99.90;;;;;;5046834;28;20052;-75
2022/10/20 09:20:54;;;;;;;12.13;7.40;;;8.80;99.90;;;;;;5047124;28;20063;-75
2022/10/20 09:23:23;;;;;;;11.82;8.43;;;8.90;99.90;;;;;;5045735;28;20399;-76
2022/10/20 09:25:51;;;;;;;12.75;6.72;;;8.90;99.90;;;;;;5034083;28;20128;-75
2022/10/20 09:28:27;;;;;;;12.90;8.02;;;8.90;99.90;;;;;;5026496;28;20052;-76
2022/10/20 09:30:54;;;;;;;10.23;7.80;;;9.00;99.90;;;;;;5027097;28;20045;-76
2022/10/20 09:33:34;;;;;;;8.73;5.90;;;9.00;99.90;;;;;;5026872;28;20053;-76
2022/10/20 09:36:15;;;;;;;9.75;6.10;;;9.00;99.90;;;;;;5026648;28;20672;-78
2022/10/20 09:38:47;;;;;;;5.65;5.13;;;9.10;99.90;;;;;;5025740;28;20057;-76
2022/10/20 09:41:26;;;;;;;8.75;6.68;;;9.20;99.90;;;;;;5026957;28;20048;-75
2022/10/20 09:43:59;;;;;;;6.57;5.25;;;9.20;99.90;;;;;;5026980;28;20133;-75
2022/10/20 09:46:29;;;;;;;12.35;6.40;;;9.20;99.90;;;;;;5026855;28;20736;-76
2022/10/20 09:48:55;;;;;;;14.10;7.25;;;9.30;99.90;;;;;;5027024;28;20076;-76
2022/10/20 09:51:24;;;;;;;10.50;6.53;;;9.30;99.90;;;;;;5026209;28;20084;-75
2022/10/20 09:54:01;;;;;;;5.55;4.78;;;9.40;99.90;;;;;;5025482;28;20507;-77
2022/10/20 09:56:33;;;;;;;6.75;6.07;;;9.50;99.90;;;;;;5009448;28;20072;-76
2022/10/20 09:59:01;;;;;;;10.13;5.88;;;9.50;99.90;;;;;;5009161;28;20061;-76
2022/10/20 10:01:27;;;;;;;11.45;6.95;;;9.60;99.90;;;;;;5008934;28;20054;-76
2022/10/20 10:04:00;;;;;;;10.48;6.90;;;9.60;99.90;;;;;;5026323;28;20049;-77
2022/10/20 10:06:38;;;;;;;10.15;7.00;;;9.60;99.90;;;;;;5008792;28;20053;-76
2022/10/20 10:09:26;;;;;;;10.27;5.43;;;9.70;99.90;;;;;;5025382;28;20050;-77
2022/10/20 10:12:03;;;;;;;11.35;6.93;;;9.70;99.90;;;;;;5026157;28;20037;-75
2022/10/20 10:14:32;;;;;;;8.95;5.28;;;9.70;99.90;;;;;;5025613;28;20049;-76
2022/10/20 10:16:58;;;;;;;11.15;5.95;;;9.80;99.90;;;;;;5026397;28;20099;-76
2022/10/20 10:19:30;;;;;;;9.15;6.55;;;9.80;99.90;;;;;;5026081;28;20045;-76
2022/10/20 10:22:01;;;;;;;7.35;5.38;;;9.90;99.90;;;;;;5026174;28;20107;-78
2022/10/20 10:24:27;;;;;;;13.95;5.07;;;10.00;99.90;;;;;;5026657;28;20129;-76
2022/10/20 10:26:54;;;;;;;5.32;4.80;;;10.00;99.90;;;;;;5045801;28;20480;-76
2022/10/20 10:29:24;;;;;;;11.48;6.15;;;10.10;99.90;;;;;;5027977;28;20546;-77
2022/10/20 10:32:00;;;;;;;11.30;7.03;;;10.20;99.90;;;;;;5045594;28;20044;-76
2022/10/20 10:35:01;;;;;;;10.35;5.70;;;10.30;99.90;;;;;;5028247;28;20529;-75
2022/10/20 10:37:29;;;;;;;8.60;5.38;;;10.30;99.90;;;;;;5027444;28;20132;-77
2022/10/20 10:39:55;;;;;;;9.25;6.78;;;10.30;99.90;;;;;;5046035;28;20051;-76
2022/10/20 10:42:37;;;;;;;9.45;6.75;;;10.40;99.90;;;;;;5045060;28;20044;-75
2022/10/20 10:45:42;;;;;;;8.32;7.22;;;10.50;99.90;;;;;;5045271;28;20049;-75
2022/10/20 10:48:45;;;;;;;11.45;6.47;;;10.50;99.90;;;;;;5027184;28;20075;-76
2022/10/20 10:51:28;;;;;;;6.18;5.45;;;10.60;99.90;;;;;;5045120;28;20065;-76
2022/10/20 10:54:30;;;;;;;16.33;7.70;;;10.60;99.90;;;;;;5044525;28;20102;-76
2022/10/20 10:57:02;;;;;;;;;;;10.70;99.90;;;;;;5028435;28;20049;-76
2022/10/20 10:59:33;;;;;;;11.40;6.78;;;10.70;99.90;;;;;;5045562;28;20370;-75
2022/10/20 11:02:04;;;;;;;10.43;6.03;;;10.80;99.90;;;;;;5027735;28;20051;-76
2022/10/20 11:04:50;;;;;;;6.45;5.38;;;10.80;99.90;;;;;;5045572;28;20041;-78
2022/10/20 11:07:42;;;;;;;8.98;6.28;;;10.90;99.90;;;;;;5044975;28;20049;-76
2022/10/20 11:10:20;;;;;;;8.68;5.82;;;10.90;99.90;;;;;;5027234;28;20148;-78
2022/10/20 11:13:00;;;;;;;8.10;5.75;;;11.00;99.90;;;;;;5027391;28;20102;-77
2022/10/20 11:15:44;;;;;;;8.35;6.30;;;11.00;99.90;;;;;;5045324;28;20495;-76
2022/10/20 11:18:31;;;;;;;8.95;6.80;;;11.10;99.90;;;;;;5044986;28;20613;-76
2022/10/20 11:21:06;;;;;;;10.25;7.82;;;11.10;99.90;;;;;;5027436;28;20503;-76
2022/10/20 11:24:16;;;;;;;7.88;6.03;;;11.20;99.90;;;;;;5026639;28;20041;-76
2022/10/20 11:26:45;;;;;;;8.48;7.13;;;11.20;99.90;;;;;;4985850;28;20049;-76
2022/10/20 11:29:19;;;;;;;9.48;7.65;;;11.20;99.90;;;;;;5028838;28;20087;-77
2022/10/20 11:31:53;;;;;;;8.20;6.35;;;11.30;99.90;;;;;;5011214;28;20057;-76
2022/10/20 11:34:45;;;;;;;10.73;7.03;;;11.30;99.90;;;;;;5011558;28;20045;-77
2022/10/20 11:37:43;;;;;;;7.45;5.15;;;11.40;99.90;;;;;;5029119;28;20124;-76
2022/10/20 11:40:08;;;;;;;8.85;5.85;;;11.40;99.90;;;;;;5011218;28;20053;-76
2022/10/20 11:42:51;;;;;;;8.80;6.40;;;11.40;99.90;;;;;;5028826;28;20042;-76
2022/10/20 11:46:02;;;;;;;8.85;5.55;;;11.40;99.90;;;;;;5028619;28;20045;-76
2022/10/20 11:48:52;;;;;;;8.65;6.18;;;11.40;99.90;;;;;;4980885;28;20045;-78
2022/10/20 11:51:30;;;;;;;9.30;7.07;;;11.40;99.90;;;;;;5028697;28;20084;-76
2022/10/20 11:54:13;;;;;;;6.75;5.88;;;11.40;99.90;;;;;;5028236;28;20053;-76
2022/10/20 11:56:48;;;;;;;6.50;5.20;;;11.40;99.90;;;;;;5011005;28;20404;-77
2022/10/20 11:59:48;;;;;;;8.20;5.95;;;11.40;99.90;;;;;;5028591;28;20325;-76
2022/10/20 12:02:14;;;;;;;11.00;6.35;;;11.40;99.90;;;;;;5000005;28;20412;-76
2022/10/20 12:05:13;;;;;;;11.30;7.35;;;11.40;99.90;;;;;;5028589;28;20046;-77
2022/10/20 12:07:54;;;;;;;7.70;5.75;;;11.40;99.90;;;;;;5009751;28;20045;-76
2022/10/20 12:10:46;;;;;;;12.75;7.30;;;11.40;99.90;;;;;;5028107;28;20566;-76
2022/10/20 12:13:38;;;;;;;10.00;7.07;;;11.50;99.90;;;;;;5028019;28;20547;-76
2022/10/20 12:16:04;;;;;;;7.75;6.13;;;11.40;99.90;;;;;;5027960;28;20037;-76
2022/10/20 12:18:31;;;;;;;8.98;7.57;;;11.40;99.90;;;;;;5028371;28;20048;-79
2022/10/20 12:21:00;;;;;;;10.20;6.28;;;11.40;99.90;;;;;;5028793;28;20038;-76
2022/10/20 12:23:48;;;;;;;9.05;7.03;;;11.40;99.90;;;;;;5027925;28;20037;-76
2022/10/20 12:26:28;;;;;;;7.65;6.07;;;11.40;99.90;;;;;;5009419;28;20131;-76
2022/10/20 12:29:21;;;;;;;8.85;7.95;;;11.40;99.90;;;;;;5030081;28;20150;-76
2022/10/20 12:32:19;;;;;;;7.78;6.93;;;11.40;99.90;;;;;;5013569;28;20079;-76
2022/10/20 12:34:47;;;;;;;9.98;6.60;;;11.40;99.90;;;;;;5013959;28;20056;-77
2022/10/20 12:37:18;;;;;;;10.30;7.22;;;11.40;99.90;;;;;;5027904;28;20132;-75
2022/10/20 12:39:45;;;;;;;12.20;8.05;;;11.40;99.90;;;;;;5048255;28;20049;-78
2022/10/20 12:42:31;;;;;;;10.50;7.30;;;11.40;99.90;;;;;;5047529;28;20116;-76
2022/10/20 12:45:25;;;;;;;8.95;7.57;;;11.40;99.90;;;;;;5047903;28;20041;-77
2022/10/20 12:48:00;;;;;;;7.68;6.45;;;11.40;99.90;;;;;;5047534;28;20041;-76
2022/10/20 12:50:32;;;;;;;8.77;7.30;;;11.40;99.90;;;;;;5047973;28;20131;-76
2022/10/20 12:53:27;;;;;;;11.60;8.63;;;11.30;99.90;;;;;;5047390;28;20083;-76
2022/10/20 12:55:58;;;;;;;9.15;7.15;;;11.30;99.90;;;;;;5029775;28;20069;-76
2022/10/20 12:58:27;;;;;;;9.32;8.40;;;11.30;99.90;;;;;;5029164;28;20052;-76
2022/10/20 13:00:52;;;;;;;18.27;8.30;;;11.30;99.90;;;;;;5047188;28;20052;-76
2022/10/20 13:03:30;;;;;;;12.65;8.80;;;11.30;99.90;;;;;;5046877;28;20052;-76
2022/10/20 13:06:00;;;;;;;14.13;9.63;;;11.30;99.90;;;;;;5047676;28;20068;-77
2022/10/20 13:08:34;;;;;;;11.80;8.90;;;11.30;99.90;;;;;;5028937;28;20063;-76
2022/10/20 13:11:41;;;;;;;13.18;9.30;;;11.30;99.90;;;;;;5046872;28;20087;-77
2022/10/20 13:14:31;;;;;;;12.00;8.82;;;11.30;99.90;;;;;;5029004;28;20045;-76